Riverside Park, Nebraska
Current Conditions -  °F | °C
As of 12:55 PM on Friday 21 Nov 2014 (Local Time) from KAUH Reporting Station
Clear Clear  
Wind Chill: 36°   Ceiling: Unl
Heat Index: 39°   Visibility: 10mi
Dew Point: 26°   Wind: 5mph
Humidity: 60%   Direction: 190°S
Pressure: 30.05"   Gusts: NA
Location:  41.1764°N, 98.0095°W
Report Text: KAUH 211855Z AUTO 19004KT 10SM CLR 04/M03 A3005 RMK AO2 T00401031
Loading
Personal Weather Stations






























Interactive Weather Map New forecast layout! Learn more

10-Day Weather Forecast

Advertisements
Track Severe Weather on mobile